createdAt,value
2022-10-17T00:00:51.091Z,10.63
2022-10-17T00:03:19.153Z,11.82
2022-10-17T00:10:43.475Z,9.95
2022-10-17T00:13:12.350Z,10.55
2022-10-17T00:15:44.795Z,10.77
2022-10-17T00:18:12.426Z,10.95
2022-10-17T00:20:40.273Z,9.82
2022-10-17T00:23:07.739Z,9.65
2022-10-17T00:25:35.288Z,10.07
2022-10-17T00:28:03.219Z,9.43
2022-10-17T00:30:32.752Z,8.73
2022-10-17T00:33:00.226Z,8.48
2022-10-17T00:35:27.825Z,8.35
2022-10-17T00:37:55.310Z,8.15
2022-10-17T00:40:23.151Z,8.43
2022-10-17T00:42:53.005Z,7.63
2022-10-17T00:45:27.146Z,8.35
2022-10-17T00:48:08.475Z,7.60
2022-10-17T00:50:38.591Z,7.50
2022-10-17T00:53:08.146Z,7.13
2022-10-17T00:55:42.375Z,6.85
2022-10-17T00:58:10.027Z,6.78
2022-10-17T01:00:37.683Z,6.32
2022-10-17T01:03:05.355Z,6.50
2022-10-17T01:05:32.999Z,6.07
2022-10-17T01:08:00.982Z,6.25
2022-10-17T01:10:48.009Z,6.35
2022-10-17T01:13:41.252Z,6.20
2022-10-17T01:16:28.317Z,6.10
2022-10-17T01:19:05.875Z,6.68
2022-10-17T01:21:51.923Z,5.93
2022-10-17T01:24:32.840Z,6.65
2022-10-17T01:27:08.761Z,6.80
2022-10-17T01:30:13.723Z,5.95
2022-10-17T01:32:56.630Z,5.95
2022-10-17T01:35:32.681Z,6.10
2022-10-17T01:38:25.079Z,5.90
2022-10-17T01:41:00.559Z,6.03
2022-10-17T01:43:47.143Z,5.97
2022-10-17T01:46:27.934Z,5.97
2022-10-17T01:48:58.165Z,6.45
2022-10-17T01:51:42.105Z,5.97
2022-10-17T01:54:32.880Z,6.00
2022-10-17T01:57:03.853Z,6.00
2022-10-17T01:59:41.013Z,6.00
2022-10-17T02:02:10.212Z,5.53
2022-10-17T02:04:37.827Z,6.13
2022-10-17T02:07:10.224Z,6.03
2022-10-17T02:09:39.180Z,5.90
2022-10-17T02:12:45.424Z,6.00
2022-10-17T02:15:18.650Z,5.90
2022-10-17T02:18:06.791Z,5.65
2022-10-17T02:20:47.886Z,5.75
2022-10-17T02:23:22.113Z,5.82
2022-10-17T02:26:04.561Z,5.40
2022-10-17T02:28:58.422Z,5.65
2022-10-17T02:31:35.880Z,5.70
2022-10-17T02:34:09.454Z,5.93
2022-10-17T02:36:42.033Z,5.45
2022-10-17T02:39:12.842Z,5.47
2022-10-17T02:41:42.398Z,4.93
2022-10-17T02:44:12.374Z,5.10
2022-10-17T02:46:42.792Z,5.18
2022-10-17T02:49:23.374Z,5.00
2022-10-17T02:52:06.703Z,4.82
2022-10-17T02:54:40.633Z,4.90
2022-10-17T02:57:33.915Z,4.25
2022-10-17T03:00:03.902Z,4.38
2022-10-17T03:02:44.054Z,4.18
2022-10-17T03:05:14.075Z,4.15
2022-10-17T03:07:41.576Z,4.47
2022-10-17T03:10:09.268Z,3.88
2022-10-17T03:12:38.072Z,4.10
2022-10-17T03:15:06.491Z,4.15
2022-10-17T03:17:35.370Z,4.60
2022-10-17T03:20:03.863Z,4.32
2022-10-17T03:22:31.967Z,3.90
2022-10-17T03:25:01.259Z,4.35
2022-10-17T03:27:29.325Z,4.03
2022-10-17T03:29:56.912Z,3.67
2022-10-17T03:32:24.482Z,4.00
2022-10-17T03:34:52.032Z,4.00
2022-10-17T03:37:19.743Z,4.07
2022-10-17T03:39:47.222Z,4.20
2022-10-17T03:42:14.705Z,4.55
2022-10-17T03:44:42.172Z,4.45
2022-10-17T03:47:11.962Z,4.28
2022-10-17T03:49:41.739Z,4.40
2022-10-17T03:52:13.494Z,4.68
2022-10-17T03:54:41.130Z,4.35
2022-10-17T03:57:08.562Z,4.55
2022-10-17T03:59:36.996Z,3.75
2022-10-17T04:04:42.422Z,4.57
2022-10-17T04:07:09.865Z,4.65
2022-10-17T04:09:40.843Z,4.50
2022-10-17T04:12:19.030Z,4.28
2022-10-17T04:14:46.863Z,4.20
2022-10-17T04:17:15.455Z,4.03
2022-10-17T04:19:42.905Z,3.97
2022-10-17T04:22:10.674Z,4.22
2022-10-17T04:24:40.344Z,4.10
2022-10-17T04:27:17.589Z,3.80
2022-10-17T04:29:46.387Z,4.22
2022-10-17T04:32:21.623Z,4.20
2022-10-17T04:34:54.691Z,4.40
2022-10-17T04:37:23.846Z,4.05
2022-10-17T04:39:54.098Z,4.13
2022-10-17T04:42:21.812Z,4.07
2022-10-17T04:44:52.349Z,3.75
2022-10-17T04:47:20.015Z,4.35
2022-10-17T04:49:47.539Z,4.40
2022-10-17T04:52:16.814Z,4.30
2022-10-17T04:54:45.719Z,4.05
2022-10-17T04:57:15.021Z,4.03
2022-10-17T04:59:49.190Z,4.30
2022-10-17T05:02:25.706Z,3.75
2022-10-17T05:04:53.421Z,4.32
2022-10-17T05:07:21.748Z,4.43
2022-10-17T05:09:59.128Z,3.83
2022-10-17T05:12:27.349Z,4.10
2022-10-17T05:14:55.378Z,3.72
2022-10-17T05:17:25.992Z,3.90
2022-10-17T05:19:55.641Z,4.03
2022-10-17T05:22:23.559Z,4.13
2022-10-17T05:24:51.570Z,4.38
2022-10-17T05:27:19.599Z,4.53
2022-10-17T05:29:47.111Z,3.67
2022-10-17T05:32:20.907Z,4.10
2022-10-17T05:34:48.726Z,4.28
2022-10-17T05:37:16.581Z,3.75
2022-10-17T05:39:51.381Z,4.25
2022-10-17T05:42:22.393Z,4.53
2022-10-17T05:44:50.102Z,4.00
2022-10-17T05:47:20.032Z,4.25
2022-10-17T05:49:52.080Z,4.55
2022-10-17T05:52:23.906Z,4.50
2022-10-17T05:55:07.416Z,4.50
2022-10-17T05:57:35.214Z,4.30
2022-10-17T06:00:05.678Z,4.38
2022-10-17T06:02:42.735Z,4.15
2022-10-17T06:05:13.306Z,4.22
2022-10-17T06:07:41.120Z,5.22
2022-10-17T06:10:12.931Z,4.75
2022-10-17T06:12:40.922Z,4.80
2022-10-17T06:17:36.856Z,4.65
2022-10-17T06:20:05.093Z,3.90
2022-10-17T06:22:33.530Z,4.50
2022-10-17T06:25:02.521Z,3.88
2022-10-17T06:27:30.106Z,4.40
2022-10-17T06:29:57.675Z,4.25
2022-10-17T06:32:25.235Z,4.03
2022-10-17T06:34:52.714Z,4.10
2022-10-17T06:37:20.191Z,4.63
2022-10-17T06:39:48.104Z,4.20
2022-10-17T06:42:22.368Z,3.92
2022-10-17T06:45:28.717Z,3.95
2022-10-17T06:48:18.229Z,3.17
2022-10-17T06:51:06.136Z,3.63
2022-10-17T06:53:44.039Z,3.80
2022-10-17T06:56:34.662Z,3.65
2022-10-17T06:59:28.175Z,2.80
2022-10-17T07:02:02.523Z,2.83
2022-10-17T07:04:30.824Z,2.50
2022-10-17T07:09:32.979Z,2.15
2022-10-17T07:14:31.986Z,2.22
2022-10-17T07:17:00.494Z,2.35
2022-10-17T07:19:29.863Z,2.20
2022-10-17T07:21:57.401Z,2.60
2022-10-17T07:24:25.990Z,3.83
2022-10-17T07:26:58.995Z,2.60
2022-10-17T07:29:26.505Z,3.08
2022-10-17T07:31:59.513Z,2.75
2022-10-17T07:34:30.678Z,2.95
2022-10-17T07:36:58.085Z,2.88
2022-10-17T07:39:25.598Z,3.00
2022-10-17T07:41:53.669Z,2.42
2022-10-17T07:44:22.298Z,2.63
2022-10-17T07:46:52.112Z,2.78
2022-10-17T07:49:19.912Z,2.80
2022-10-17T07:51:48.178Z,2.25
2022-10-17T07:56:43.075Z,2.10
2022-10-17T07:59:10.540Z,2.55
2022-10-17T08:01:38.105Z,2.35
2022-10-17T08:04:05.567Z,2.92
2022-10-17T08:06:32.974Z,2.47
2022-10-17T08:09:01.847Z,2.08
2022-10-17T08:11:29.307Z,2.03
2022-10-17T08:13:56.733Z,1.95
2022-10-17T08:16:24.221Z,2.20
2022-10-17T08:18:51.713Z,2.20
2022-10-17T08:21:19.178Z,1.88
2022-10-17T08:23:47.839Z,2.30
2022-10-17T08:26:17.289Z,2.30
2022-10-17T08:28:44.880Z,2.50
2022-10-17T08:31:15.017Z,2.38
2022-10-17T08:33:43.207Z,2.22
2022-10-17T08:38:43.096Z,2.88
2022-10-17T08:41:24.510Z,2.72
2022-10-17T08:44:12.959Z,2.30
2022-10-17T08:46:43.729Z,3.30
2022-10-17T08:49:19.700Z,2.70
2022-10-17T08:52:04.864Z,2.70
2022-10-17T08:54:47.488Z,2.70
2022-10-17T08:57:18.391Z,2.70
2022-10-17T08:59:52.585Z,2.78
2022-10-17T09:02:36.544Z,2.70
2022-10-17T09:05:40.350Z,2.90
2022-10-17T09:08:26.500Z,2.70
2022-10-17T09:10:59.595Z,3.08
2022-10-17T09:14:01.976Z,3.28
2022-10-17T09:16:32.540Z,2.80
2022-10-17T09:19:07.453Z,2.95
2022-10-17T09:21:46.573Z,2.80
2022-10-17T09:24:25.362Z,3.13
2022-10-17T09:26:54.709Z,3.65
2022-10-17T09:29:24.803Z,3.45
2022-10-17T09:32:02.639Z,2.95
2022-10-17T09:34:32.125Z,3.15
2022-10-17T09:37:02.307Z,3.25
2022-10-17T09:39:33.059Z,4.22
2022-10-17T09:42:01.979Z,3.45
2022-10-17T09:44:47.819Z,3.38
2022-10-17T09:47:20.471Z,3.30
2022-10-17T09:49:49.424Z,3.35
2022-10-17T09:52:24.511Z,4.05
2022-10-17T09:54:56.009Z,3.38
2022-10-17T09:57:23.699Z,3.38
2022-10-17T10:00:01.064Z,3.75
2022-10-17T10:02:31.277Z,3.90
2022-10-17T10:05:31.260Z,3.70
2022-10-17T10:08:12.721Z,3.95
2022-10-17T10:10:43.626Z,4.30
2022-10-17T10:13:14.108Z,4.18
2022-10-17T10:15:43.851Z,4.40
2022-10-17T10:18:26.293Z,4.13
2022-10-17T10:21:04.952Z,4.10
2022-10-17T10:23:32.946Z,4.05
2022-10-17T10:26:04.485Z,4.00
2022-10-17T10:28:35.299Z,4.00
2022-10-17T10:31:08.466Z,3.67
2022-10-17T10:33:41.917Z,3.60
2022-10-17T10:36:09.855Z,3.55
2022-10-17T10:38:42.414Z,4.15
2022-10-17T10:41:11.444Z,3.25
2022-10-17T10:43:46.330Z,4.05
2022-10-17T10:46:23.687Z,3.58
2022-10-17T10:48:59.736Z,3.83
2022-10-17T10:51:39.934Z,3.67
2022-10-17T10:54:16.135Z,3.58
2022-10-17T10:56:51.266Z,3.20
2022-10-17T10:59:37.168Z,3.75
2022-10-17T11:02:11.579Z,3.80
2022-10-17T11:04:47.485Z,4.03
2022-10-17T11:07:23.138Z,3.22
2022-10-17T11:09:58.640Z,3.95
2022-10-17T11:12:33.156Z,3.67
2022-10-17T11:15:17.096Z,3.72
2022-10-17T11:17:56.861Z,3.53
2022-10-17T11:20:42.433Z,3.70
2022-10-17T11:23:24.076Z,3.45
2022-10-17T11:25:53.664Z,3.33
2022-10-17T11:28:23.742Z,3.50
2022-10-17T11:31:05.752Z,3.50
2022-10-17T11:34:09.145Z,3.63
2022-10-17T11:36:41.280Z,4.18
2022-10-17T11:39:17.804Z,3.40
2022-10-17T11:41:51.930Z,3.45
2022-10-17T11:44:29.244Z,3.88
2022-10-17T11:47:23.759Z,4.07
2022-10-17T11:53:09.199Z,3.30
2022-10-17T11:55:38.404Z,3.72
2022-10-17T11:58:21.643Z,3.30
2022-10-17T12:01:08.294Z,3.15
2022-10-17T12:04:06.574Z,3.63
2022-10-17T12:06:43.157Z,3.42
2022-10-17T12:09:10.524Z,3.45
2022-10-17T12:11:57.765Z,3.10
2022-10-17T12:14:34.493Z,3.38
2022-10-17T12:17:03.617Z,3.28
2022-10-17T12:19:34.138Z,3.90
2022-10-17T12:22:18.936Z,3.45
2022-10-17T12:24:57.059Z,3.65
2022-10-17T12:30:23.022Z,4.05
2022-10-17T12:33:22.477Z,4.05
2022-10-17T12:35:51.603Z,3.97
2022-10-17T12:38:23.183Z,3.88
2022-10-17T12:40:56.169Z,3.80
2022-10-17T12:43:29.636Z,4.13
2022-10-17T12:46:02.130Z,4.05
2022-10-17T12:48:41.802Z,3.83
2022-10-17T12:51:34.781Z,4.03
2022-10-17T12:54:12.455Z,3.80
2022-10-17T12:56:43.112Z,3.78
2022-10-17T12:59:22.411Z,3.83
2022-10-17T13:01:53.767Z,3.95
2022-10-17T13:04:21.981Z,3.78
2022-10-17T13:09:38.869Z,3.47
2022-10-17T13:12:14.757Z,2.85
2022-10-17T13:14:43.554Z,3.35
2022-10-17T13:17:25.287Z,3.40
2022-10-17T13:19:53.552Z,3.45
2022-10-17T13:22:32.601Z,3.40
2022-10-17T13:25:27.432Z,3.50
2022-10-17T13:28:07.979Z,3.58
2022-10-17T13:30:36.713Z,3.22
2022-10-17T13:33:16.356Z,3.60
2022-10-17T13:36:00.867Z,3.28
2022-10-17T13:38:32.572Z,3.35
2022-10-17T13:41:30.047Z,4.20
2022-10-17T13:43:51.003Z,3.00
2022-10-17T13:46:37.855Z,2.95
2022-10-17T13:49:23.243Z,3.13
2022-10-17T13:51:54.913Z,3.10
2022-10-17T13:54:43.341Z,2.65
2022-10-17T13:57:21.495Z,3.03
2022-10-17T13:59:55.574Z,3.53
2022-10-17T14:02:27.621Z,3.08
2022-10-17T14:05:17.807Z,3.13
2022-10-17T14:08:12.992Z,3.08
2022-10-17T14:10:43.793Z,3.22
2022-10-17T14:13:25.380Z,3.33
2022-10-17T14:16:02.791Z,3.10
2022-10-17T14:18:36.762Z,3.28
2022-10-17T14:24:13.673Z,2.95
2022-10-17T14:26:58.650Z,3.08
2022-10-17T14:29:31.881Z,3.42
2022-10-17T14:32:03.840Z,3.13
2022-10-17T14:34:34.614Z,2.88
2022-10-17T14:37:08.505Z,3.15
2022-10-17T14:39:36.140Z,3.25
2022-10-17T14:42:04.649Z,3.38
2022-10-17T14:44:35.228Z,3.53
2022-10-17T14:47:41.864Z,3.40
2022-10-17T14:50:07.200Z,3.00
2022-10-17T14:52:35.072Z,3.15
2022-10-17T14:57:45.378Z,3.20
2022-10-17T15:00:17.839Z,3.00
2022-10-17T15:02:47.023Z,3.40
2022-10-17T15:05:15.586Z,3.38
2022-10-17T15:07:43.178Z,3.10
2022-10-17T15:10:28.416Z,3.08
2022-10-17T15:12:59.339Z,3.17
2022-10-17T15:15:39.166Z,2.65
2022-10-17T15:18:07.631Z,2.90
2022-10-17T15:20:35.279Z,2.72
2022-10-17T15:23:03.624Z,2.97
2022-10-17T15:25:31.939Z,2.90
2022-10-17T15:27:59.454Z,2.53
2022-10-17T15:30:32.587Z,2.78
2022-10-17T15:33:00.567Z,2.40
2022-10-17T15:35:28.926Z,2.83
2022-10-17T15:37:56.716Z,2.83
2022-10-17T15:40:31.065Z,2.55
2022-10-17T15:42:58.485Z,2.20
2022-10-17T15:45:25.962Z,2.47
2022-10-17T15:47:57.754Z,2.50
2022-10-17T15:50:25.270Z,2.55
2022-10-17T15:52:52.709Z,2.83
2022-10-17T15:55:20.411Z,11.70
2022-10-17T15:57:48.880Z,4.85
2022-10-17T16:00:22.361Z,3.15
2022-10-17T16:02:50.397Z,3.00
2022-10-17T16:05:26.290Z,3.33
2022-10-17T16:07:54.767Z,3.08
2022-10-17T16:10:22.969Z,3.25
2022-10-17T16:15:24.910Z,2.95
2022-10-17T16:17:53.835Z,3.35
2022-10-17T16:20:21.716Z,2.85
2022-10-17T16:22:49.993Z,3.08
2022-10-17T16:27:54.989Z,2.92
2022-10-17T16:30:24.381Z,3.28
2022-10-17T16:32:53.048Z,3.40
2022-10-17T16:35:24.192Z,3.40
2022-10-17T16:37:51.865Z,3.00
2022-10-17T16:40:19.816Z,3.42
2022-10-17T16:42:49.683Z,3.30
2022-10-17T16:45:20.536Z,3.60
2022-10-17T16:47:48.543Z,3.13
2022-10-17T16:50:16.312Z,3.47
2022-10-17T16:52:43.815Z,3.10
2022-10-17T16:55:11.516Z,3.65
2022-10-17T16:57:39.031Z,3.15
2022-10-17T17:00:07.408Z,3.47
2022-10-17T17:02:35.137Z,2.85
2022-10-17T17:05:02.738Z,3.78
2022-10-17T17:07:30.673Z,3.67
2022-10-17T17:12:25.830Z,3.63
2022-10-17T17:14:53.225Z,4.00
2022-10-17T17:17:30.666Z,3.70
2022-10-17T17:20:08.350Z,4.07
2022-10-17T17:22:35.763Z,4.60
2022-10-17T17:25:03.298Z,4.45
2022-10-17T17:27:30.963Z,3.88
2022-10-17T17:29:58.572Z,4.03
2022-10-17T17:32:26.011Z,4.03
2022-10-17T17:34:54.403Z,4.10
2022-10-17T17:37:21.840Z,4.50
2022-10-17T17:39:49.391Z,4.18
2022-10-17T17:42:17.022Z,4.20
2022-10-17T17:44:44.988Z,4.63
2022-10-17T17:47:12.448Z,5.13
2022-10-17T17:49:39.944Z,5.40
2022-10-17T17:52:07.482Z,5.90
2022-10-17T17:54:38.494Z,5.93
2022-10-17T17:57:08.306Z,5.50
2022-10-17T17:59:35.923Z,6.50
2022-10-17T18:02:06.114Z,6.70
2022-10-17T18:04:33.663Z,7.40
2022-10-17T18:07:01.179Z,8.27
2022-10-17T18:09:28.711Z,7.70
2022-10-17T18:11:56.126Z,6.15
2022-10-17T18:14:26.364Z,5.70
2022-10-17T18:16:53.773Z,5.32
2022-10-17T18:19:23.654Z,5.60
2022-10-17T18:21:51.107Z,5.13
2022-10-17T18:24:18.537Z,5.15
2022-10-17T18:26:45.999Z,5.15
2022-10-17T18:29:13.450Z,5.13
2022-10-17T18:31:41.010Z,5.18
2022-10-17T18:34:08.442Z,5.60
2022-10-17T18:36:37.154Z,4.90
2022-10-17T18:39:05.328Z,5.35
2022-10-17T18:41:33.792Z,5.03
2022-10-17T18:44:03.042Z,5.47
2022-10-17T18:46:35.999Z,5.72
2022-10-17T18:49:03.632Z,5.75
2022-10-17T18:51:31.139Z,6.03
2022-10-17T18:53:58.995Z,5.88
2022-10-17T18:56:26.935Z,5.57
2022-10-17T18:58:55.468Z,5.53
2022-10-17T19:01:26.704Z,5.47
2022-10-17T19:03:58.889Z,6.13
2022-10-17T19:06:31.692Z,5.72
2022-10-17T19:09:00.998Z,5.95
2022-10-17T19:11:30.043Z,6.07
2022-10-17T19:13:59.688Z,5.90
2022-10-17T19:16:36.564Z,5.43
2022-10-17T19:19:15.325Z,5.60
2022-10-17T19:21:43.267Z,5.63
2022-10-17T19:24:20.039Z,5.82
2022-10-17T19:26:50.310Z,5.78
2022-10-17T19:29:18.420Z,5.75
2022-10-17T19:31:47.071Z,6.00
2022-10-17T19:34:16.008Z,5.68
2022-10-17T19:36:43.771Z,5.60
2022-10-17T19:39:16.359Z,6.00
2022-10-17T19:41:45.571Z,6.10
2022-10-17T19:44:14.027Z,6.47
2022-10-17T19:46:44.271Z,6.50
2022-10-17T19:49:12.089Z,6.95
2022-10-17T19:51:39.689Z,7.10
2022-10-17T19:54:07.230Z,7.03
2022-10-17T19:56:38.001Z,9.18
2022-10-17T19:59:06.286Z,6.88
2022-10-17T20:04:02.616Z,7.10
2022-10-17T20:06:30.343Z,7.05
2022-10-17T20:08:57.820Z,6.60
2022-10-17T20:11:27.763Z,6.82
2022-10-17T20:13:56.335Z,7.45
2022-10-17T20:16:26.573Z,7.18
2022-10-17T20:18:56.915Z,7.03
2022-10-17T20:21:31.518Z,7.47
2022-10-17T20:23:59.563Z,7.00
2022-10-17T20:26:43.108Z,7.25
2022-10-17T20:29:19.841Z,6.75
2022-10-17T20:31:48.442Z,6.53
2022-10-17T20:34:17.616Z,6.00
2022-10-17T20:36:45.578Z,6.45
2022-10-17T20:39:15.210Z,7.20
2022-10-17T20:41:43.529Z,6.75
2022-10-17T20:44:12.356Z,7.75
2022-10-17T20:46:45.163Z,7.63
2022-10-17T20:49:20.840Z,7.63
2022-10-17T20:51:48.515Z,6.80
2022-10-17T20:54:16.079Z,6.80
2022-10-17T20:56:43.713Z,5.63
2022-10-17T20:59:14.360Z,6.80
2022-10-17T21:01:42.772Z,6.28
2022-10-17T21:04:40.526Z,6.90
2022-10-17T21:06:58.365Z,7.45
2022-10-17T21:09:25.795Z,6.78
2022-10-17T21:11:55.592Z,6.30
2022-10-17T21:14:24.710Z,6.50
2022-10-17T21:16:52.390Z,6.55
2022-10-17T21:19:21.612Z,6.80
2022-10-17T21:21:49.432Z,7.25
2022-10-17T21:24:19.143Z,7.15
2022-10-17T21:26:50.170Z,6.57
2022-10-17T21:29:17.579Z,6.43
2022-10-17T21:31:45.411Z,6.88
2022-10-17T21:34:18.874Z,6.43
2022-10-17T21:36:46.969Z,6.82
2022-10-17T21:39:15.755Z,6.55
2022-10-17T21:41:44.343Z,6.72
2022-10-17T21:44:14.708Z,5.95
2022-10-17T21:46:43.091Z,5.88
2022-10-17T21:49:15.415Z,5.78
2022-10-17T21:51:44.046Z,6.00
2022-10-17T21:54:12.007Z,5.78
2022-10-17T21:56:40.264Z,6.00
2022-10-17T22:01:41.389Z,5.32
2022-10-17T22:04:11.507Z,6.03
2022-10-17T22:06:41.076Z,6.03
2022-10-17T22:09:14.462Z,6.90
2022-10-17T22:11:43.927Z,6.95
2022-10-17T22:14:13.936Z,6.85
2022-10-17T22:16:42.038Z,7.20
2022-10-17T22:19:11.442Z,7.18
2022-10-17T22:21:38.932Z,7.72
2022-10-17T22:24:08.649Z,5.07
2022-10-17T22:26:37.692Z,5.68
2022-10-17T22:29:07.209Z,5.53
2022-10-17T22:31:35.502Z,6.15
2022-10-17T22:36:33.513Z,4.93
2022-10-17T22:39:01.247Z,4.78
2022-10-17T22:41:28.991Z,5.00
2022-10-17T22:43:56.660Z,4.72
2022-10-17T22:46:24.328Z,4.85
2022-10-17T22:48:51.752Z,3.90
2022-10-17T22:51:19.316Z,3.80
2022-10-17T22:57:27.655Z,3.90
2022-10-17T22:59:55.267Z,4.32
2022-10-17T23:02:22.936Z,4.43
2022-10-17T23:04:50.324Z,3.95
2022-10-17T23:07:17.907Z,4.40
2022-10-17T23:09:45.540Z,3.90
2022-10-17T23:12:12.970Z,3.85
2022-10-17T23:14:43.256Z,4.38
2022-10-17T23:17:11.440Z,3.85
2022-10-17T23:19:39.821Z,4.07
2022-10-17T23:22:08.570Z,4.10
2022-10-17T23:24:35.967Z,4.03
2022-10-17T23:27:03.529Z,4.22
2022-10-17T23:29:34.712Z,3.67
2022-10-17T23:32:02.212Z,3.78
2022-10-17T23:34:30.498Z,3.85
2022-10-17T23:36:57.939Z,4.65
2022-10-17T23:39:25.335Z,3.90
2022-10-17T23:41:52.772Z,3.70
2022-10-17T23:44:20.237Z,4.43
2022-10-17T23:46:47.911Z,4.35
2022-10-17T23:49:15.380Z,4.20
2022-10-17T23:51:42.798Z,3.90
2022-10-17T23:54:10.322Z,3.95
2022-10-17T23:56:37.732Z,4.18
2022-10-17T23:59:05.163Z,4.47
